sensor_id;sensor_type;location;lat;lon;timestamp;P1;durP1;ratioP1;P2;durP2;ratioP2
11396;SDS011;5754;43.726;7.416;2023-03-01T00:02:14;3.57;;;1.60;;
11396;SDS011;5754;43.726;7.416;2023-03-01T00:04:49;1.93;;;1.50;;
11396;SDS011;5754;43.726;7.416;2023-03-01T00:07:24;1.90;;;1.70;;
11396;SDS011;5754;43.726;7.416;2023-03-01T00:09:58;1.50;;;1.40;;
11396;SDS011;5754;43.726;7.416;2023-03-01T00:12:33;2.17;;;1.50;;
11396;SDS011;5754;43.726;7.416;2023-03-01T00:15:08;3.40;;;1.50;;
11396;SDS011;5754;43.726;7.416;2023-03-01T00:17:42;1.40;;;1.30;;
11396;SDS011;5754;43.726;7.416;2023-03-01T00:20:18;3.03;;;1.30;;
11396;SDS011;5754;43.726;7.416;2023-03-01T00:22:53;4.50;;;1.40;;
11396;SDS011;5754;43.726;7.416;2023-03-01T00:25:27;2.43;;;1.33;;
11396;SDS011;5754;43.726;7.416;2023-03-01T00:28:01;4.13;;;1.50;;
11396;SDS011;5754;43.726;7.416;2023-03-01T00:30:37;1.67;;;1.30;;
11396;SDS011;5754;43.726;7.416;2023-03-01T00:33:13;2.90;;;1.60;;
11396;SDS011;5754;43.726;7.416;2023-03-01T00:35:47;2.00;;;1.53;;
11396;SDS011;5754;43.726;7.416;2023-03-01T00:38:22;3.63;;;1.30;;
11396;SDS011;5754;43.726;7.416;2023-03-01T00:41:02;3.00;;;1.57;;
11396;SDS011;5754;43.726;7.416;2023-03-01T00:43:37;1.87;;;1.23;;
11396;SDS011;5754;43.726;7.416;2023-03-01T00:46:12;1.60;;;1.20;;
11396;SDS011;5754;43.726;7.416;2023-03-01T00:48:47;2.30;;;1.30;;
11396;SDS011;5754;43.726;7.416;2023-03-01T00:51:23;2.30;;;1.43;;
11396;SDS011;5754;43.726;7.416;2023-03-01T00:53:59;2.67;;;1.07;;
11396;SDS011;5754;43.726;7.416;2023-03-01T00:56:34;1.40;;;1.30;;
11396;SDS011;5754;43.726;7.416;2023-03-01T00:59:09;2.30;;;1.43;;
11396;SDS011;5754;43.726;7.416;2023-03-01T01:01:49;1.60;;;1.50;;
11396;SDS011;5754;43.726;7.416;2023-03-01T01:04:25;1.70;;;1.50;;
11396;SDS011;5754;43.726;7.416;2023-03-01T01:06:59;3.83;;;1.57;;
11396;SDS011;5754;43.726;7.416;2023-03-01T01:09:34;1.73;;;1.30;;
11396;SDS011;5754;43.726;7.416;2023-03-01T01:12:08;1.70;;;1.60;;
11396;SDS011;5754;43.726;7.416;2023-03-01T01:14:43;1.40;;;1.30;;
11396;SDS011;5754;43.726;7.416;2023-03-01T01:17:17;3.47;;;1.43;;
11396;SDS011;5754;43.726;7.416;2023-03-01T01:19:52;1.90;;;1.50;;
11396;SDS011;5754;43.726;7.416;2023-03-01T01:22:28;1.50;;;1.30;;
11396;SDS011;5754;43.726;7.416;2023-03-01T01:25:03;1.40;;;1.30;;
11396;SDS011;5754;43.726;7.416;2023-03-01T01:27:37;2.07;;;1.37;;
11396;SDS011;5754;43.726;7.416;2023-03-01T01:30:12;1.87;;;1.40;;
11396;SDS011;5754;43.726;7.416;2023-03-01T01:32:46;2.00;;;1.43;;
11396;SDS011;5754;43.726;7.416;2023-03-01T01:35:21;2.00;;;1.57;;
11396;SDS011;5754;43.726;7.416;2023-03-01T01:37:56;6.27;;;1.50;;
11396;SDS011;5754;43.726;7.416;2023-03-01T01:40:30;1.97;;;1.40;;
11396;SDS011;5754;43.726;7.416;2023-03-01T01:43:04;3.27;;;1.33;;
11396;SDS011;5754;43.726;7.416;2023-03-01T01:45:39;2.23;;;1.40;;
11396;SDS011;5754;43.726;7.416;2023-03-01T01:48:16;1.40;;;1.30;;
11396;SDS011;5754;43.726;7.416;2023-03-01T01:50:55;1.80;;;1.50;;
11396;SDS011;5754;43.726;7.416;2023-03-01T01:53:31;1.50;;;1.40;;
11396;SDS011;5754;43.726;7.416;2023-03-01T01:56:06;2.63;;;1.60;;
11396;SDS011;5754;43.726;7.416;2023-03-01T01:58:42;2.07;;;1.60;;
11396;SDS011;5754;43.726;7.416;2023-03-01T02:01:17;2.03;;;1.70;;
11396;SDS011;5754;43.726;7.416;2023-03-01T02:03:52;1.70;;;1.60;;
11396;SDS011;5754;43.726;7.416;2023-03-01T02:06:28;3.43;;;1.67;;
11396;SDS011;5754;43.726;7.416;2023-03-01T02:09:06;1.93;;;1.70;;
11396;SDS011;5754;43.726;7.416;2023-03-01T02:11:41;2.53;;;1.87;;
11396;SDS011;5754;43.726;7.416;2023-03-01T02:14:17;2.03;;;1.83;;
11396;SDS011;5754;43.726;7.416;2023-03-01T02:16:51;2.57;;;1.70;;
11396;SDS011;5754;43.726;7.416;2023-03-01T02:19:29;3.47;;;1.87;;
11396;SDS011;5754;43.726;7.416;2023-03-01T02:22:13;3.77;;;2.00;;
11396;SDS011;5754;43.726;7.416;2023-03-01T02:27:49;4.80;;;2.03;;
11396;SDS011;5754;43.726;7.416;2023-03-01T02:30:26;4.00;;;2.30;;
11396;SDS011;5754;43.726;7.416;2023-03-01T02:33:02;2.47;;;2.00;;
11396;SDS011;5754;43.726;7.416;2023-03-01T02:35:39;2.33;;;2.10;;
11396;SDS011;5754;43.726;7.416;2023-03-01T02:38:14;2.10;;;1.90;;
11396;SDS011;5754;43.726;7.416;2023-03-01T02:40:50;1.70;;;1.60;;
11396;SDS011;5754;43.726;7.416;2023-03-01T02:43:26;2.10;;;1.77;;
11396;SDS011;5754;43.726;7.416;2023-03-01T02:46:03;2.60;;;1.80;;
11396;SDS011;5754;43.726;7.416;2023-03-01T02:48:45;2.30;;;2.10;;
11396;SDS011;5754;43.726;7.416;2023-03-01T02:52:23;2.67;;;1.87;;
11396;SDS011;5754;43.726;7.416;2023-03-01T02:55:02;2.70;;;2.00;;
11396;SDS011;5754;43.726;7.416;2023-03-01T02:57:38;2.73;;;2.17;;
11396;SDS011;5754;43.726;7.416;2023-03-01T03:00:14;6.27;;;1.93;;
11396;SDS011;5754;43.726;7.416;2023-03-01T03:02:53;2.90;;;1.80;;
11396;SDS011;5754;43.726;7.416;2023-03-01T03:05:31;2.33;;;1.93;;
11396;SDS011;5754;43.726;7.416;2023-03-01T03:08:05;2.57;;;1.70;;
11396;SDS011;5754;43.726;7.416;2023-03-01T03:10:42;3.97;;;1.93;;
11396;SDS011;5754;43.726;7.416;2023-03-01T03:13:17;3.43;;;1.73;;
11396;SDS011;5754;43.726;7.416;2023-03-01T03:15:52;3.40;;;1.97;;
11396;SDS011;5754;43.726;7.416;2023-03-01T03:18:26;3.03;;;1.77;;
11396;SDS011;5754;43.726;7.416;2023-03-01T03:21:01;2.20;;;1.90;;
11396;SDS011;5754;43.726;7.416;2023-03-01T03:23:35;2.30;;;2.00;;
11396;SDS011;5754;43.726;7.416;2023-03-01T03:26:11;2.50;;;1.90;;
11396;SDS011;5754;43.726;7.416;2023-03-01T03:28:46;4.17;;;1.80;;
11396;SDS011;5754;43.726;7.416;2023-03-01T03:31:21;3.17;;;2.30;;
11396;SDS011;5754;43.726;7.416;2023-03-01T03:33:55;2.27;;;2.03;;
11396;SDS011;5754;43.726;7.416;2023-03-01T03:36:29;1.93;;;1.80;;
11396;SDS011;5754;43.726;7.416;2023-03-01T03:39:05;2.60;;;2.03;;
11396;SDS011;5754;43.726;7.416;2023-03-01T03:41:39;2.27;;;1.83;;
11396;SDS011;5754;43.726;7.416;2023-03-01T03:44:13;2.80;;;1.97;;
11396;SDS011;5754;43.726;7.416;2023-03-01T03:46:48;3.10;;;2.00;;
11396;SDS011;5754;43.726;7.416;2023-03-01T03:49:22;3.63;;;2.13;;
11396;SDS011;5754;43.726;7.416;2023-03-01T03:51:56;6.20;;;2.23;;
11396;SDS011;5754;43.726;7.416;2023-03-01T03:54:33;2.70;;;2.00;;
11396;SDS011;5754;43.726;7.416;2023-03-01T03:57:07;3.03;;;2.03;;
11396;SDS011;5754;43.726;7.416;2023-03-01T03:59:41;2.20;;;2.00;;
11396;SDS011;5754;43.726;7.416;2023-03-01T04:02:16;6.27;;;2.27;;
11396;SDS011;5754;43.726;7.416;2023-03-01T04:04:55;3.00;;;2.30;;
11396;SDS011;5754;43.726;7.416;2023-03-01T04:07:30;3.87;;;2.67;;
11396;SDS011;5754;43.726;7.416;2023-03-01T04:10:05;5.50;;;2.20;;
11396;SDS011;5754;43.726;7.416;2023-03-01T04:12:41;4.60;;;2.27;;
11396;SDS011;5754;43.726;7.416;2023-03-01T04:15:18;2.87;;;2.17;;
11396;SDS011;5754;43.726;7.416;2023-03-01T04:17:53;4.20;;;2.13;;
11396;SDS011;5754;43.726;7.416;2023-03-01T04:20:29;3.70;;;2.10;;
11396;SDS011;5754;43.726;7.416;2023-03-01T04:23:06;2.47;;;1.70;;
11396;SDS011;5754;43.726;7.416;2023-03-01T04:25:46;3.40;;;1.70;;
11396;SDS011;5754;43.726;7.416;2023-03-01T04:28:31;4.40;;;2.03;;
11396;SDS011;5754;43.726;7.416;2023-03-01T04:31:11;2.67;;;1.90;;
11396;SDS011;5754;43.726;7.416;2023-03-01T04:36:32;2.07;;;1.70;;
11396;SDS011;5754;43.726;7.416;2023-03-01T04:39:09;3.10;;;2.03;;
11396;SDS011;5754;43.726;7.416;2023-03-01T04:41:45;2.50;;;2.00;;
11396;SDS011;5754;43.726;7.416;2023-03-01T04:44:20;2.03;;;1.80;;
11396;SDS011;5754;43.726;7.416;2023-03-01T04:46:54;2.33;;;1.90;;
11396;SDS011;5754;43.726;7.416;2023-03-01T04:49:28;2.40;;;1.80;;
11396;SDS011;5754;43.726;7.416;2023-03-01T04:52:04;2.90;;;2.20;;
11396;SDS011;5754;43.726;7.416;2023-03-01T04:54:38;4.03;;;1.97;;
11396;SDS011;5754;43.726;7.416;2023-03-01T04:57:13;2.70;;;1.80;;
11396;SDS011;5754;43.726;7.416;2023-03-01T04:59:47;3.57;;;1.93;;
11396;SDS011;5754;43.726;7.416;2023-03-01T05:02:22;2.17;;;1.87;;
11396;SDS011;5754;43.726;7.416;2023-03-01T05:04:56;4.50;;;1.97;;
11396;SDS011;5754;43.726;7.416;2023-03-01T05:07:30;2.50;;;1.80;;
11396;SDS011;5754;43.726;7.416;2023-03-01T05:10:05;3.90;;;1.80;;
11396;SDS011;5754;43.726;7.416;2023-03-01T05:12:39;3.17;;;2.23;;
11396;SDS011;5754;43.726;7.416;2023-03-01T05:15:14;4.97;;;2.17;;
11396;SDS011;5754;43.726;7.416;2023-03-01T05:17:49;4.20;;;2.00;;
11396;SDS011;5754;43.726;7.416;2023-03-01T05:20:23;3.37;;;1.90;;
11396;SDS011;5754;43.726;7.416;2023-03-01T05:22:59;1.87;;;1.70;;
11396;SDS011;5754;43.726;7.416;2023-03-01T05:25:34;2.00;;;1.77;;
11396;SDS011;5754;43.726;7.416;2023-03-01T05:28:13;2.37;;;1.87;;
11396;SDS011;5754;43.726;7.416;2023-03-01T05:30:48;2.00;;;1.60;;
11396;SDS011;5754;43.726;7.416;2023-03-01T05:33:24;3.07;;;1.90;;
11396;SDS011;5754;43.726;7.416;2023-03-01T05:35:59;2.00;;;1.80;;
11396;SDS011;5754;43.726;7.416;2023-03-01T05:38:36;1.90;;;1.60;;
11396;SDS011;5754;43.726;7.416;2023-03-01T05:41:14;1.50;;;1.40;;
11396;SDS011;5754;43.726;7.416;2023-03-01T05:43:50;2.07;;;1.87;;
11396;SDS011;5754;43.726;7.416;2023-03-01T05:46:25;1.70;;;1.60;;
11396;SDS011;5754;43.726;7.416;2023-03-01T05:48:59;2.63;;;1.70;;
11396;SDS011;5754;43.726;7.416;2023-03-01T05:51:33;2.00;;;1.80;;
11396;SDS011;5754;43.726;7.416;2023-03-01T05:54:08;2.10;;;1.60;;
11396;SDS011;5754;43.726;7.416;2023-03-01T05:56:44;2.37;;;1.73;;
11396;SDS011;5754;43.726;7.416;2023-03-01T05:59:19;3.63;;;1.70;;
11396;SDS011;5754;43.726;7.416;2023-03-01T06:01:53;3.03;;;1.73;;
11396;SDS011;5754;43.726;7.416;2023-03-01T06:04:28;2.20;;;1.60;;
11396;SDS011;5754;43.726;7.416;2023-03-01T06:07:02;1.97;;;1.60;;
11396;SDS011;5754;43.726;7.416;2023-03-01T06:09:37;1.63;;;1.50;;
11396;SDS011;5754;43.726;7.416;2023-03-01T06:12:11;2.67;;;1.90;;
11396;SDS011;5754;43.726;7.416;2023-03-01T06:14:47;6.73;;;3.97;;
11396;SDS011;5754;43.726;7.416;2023-03-01T06:17:22;2.77;;;2.47;;
11396;SDS011;5754;43.726;7.416;2023-03-01T06:19:56;3.70;;;2.33;;
11396;SDS011;5754;43.726;7.416;2023-03-01T06:22:30;4.03;;;2.30;;
11396;SDS011;5754;43.726;7.416;2023-03-01T06:25:05;2.80;;;2.40;;
11396;SDS011;5754;43.726;7.416;2023-03-01T06:27:40;2.67;;;1.93;;
11396;SDS011;5754;43.726;7.416;2023-03-01T06:30:15;2.27;;;1.70;;
11396;SDS011;5754;43.726;7.416;2023-03-01T06:32:50;2.07;;;1.80;;
11396;SDS011;5754;43.726;7.416;2023-03-01T06:35:25;2.57;;;1.93;;
11396;SDS011;5754;43.726;7.416;2023-03-01T06:38:03;3.90;;;2.10;;
11396;SDS011;5754;43.726;7.416;2023-03-01T06:40:38;2.00;;;1.80;;
11396;SDS011;5754;43.726;7.416;2023-03-01T06:43:13;4.43;;;2.10;;
11396;SDS011;5754;43.726;7.416;2023-03-01T06:45:47;4.77;;;2.33;;
11396;SDS011;5754;43.726;7.416;2023-03-01T06:48:22;4.03;;;2.07;;
11396;SDS011;5754;43.726;7.416;2023-03-01T06:50:59;7.57;;;3.23;;
11396;SDS011;5754;43.726;7.416;2023-03-01T06:53:34;3.40;;;2.20;;
11396;SDS011;5754;43.726;7.416;2023-03-01T06:56:09;3.57;;;1.80;;
11396;SDS011;5754;43.726;7.416;2023-03-01T06:58:43;3.47;;;2.37;;
11396;SDS011;5754;43.726;7.416;2023-03-01T07:01:18;2.37;;;1.80;;
11396;SDS011;5754;43.726;7.416;2023-03-01T07:03:52;2.40;;;1.90;;
11396;SDS011;5754;43.726;7.416;2023-03-01T07:06:27;2.70;;;1.70;;
11396;SDS011;5754;43.726;7.416;2023-03-01T07:09:02;4.63;;;2.00;;
11396;SDS011;5754;43.726;7.416;2023-03-01T07:11:36;4.80;;;2.00;;
11396;SDS011;5754;43.726;7.416;2023-03-01T07:14:10;2.33;;;1.87;;
11396;SDS011;5754;43.726;7.416;2023-03-01T07:16:45;5.53;;;2.10;;
11396;SDS011;5754;43.726;7.416;2023-03-01T07:19:19;8.83;;;2.30;;
11396;SDS011;5754;43.726;7.416;2023-03-01T07:21:55;8.83;;;2.40;;
11396;SDS011;5754;43.726;7.416;2023-03-01T07:24:29;7.03;;;3.70;;
11396;SDS011;5754;43.726;7.416;2023-03-01T07:27:04;4.20;;;3.20;;
11396;SDS011;5754;43.726;7.416;2023-03-01T07:29:38;4.47;;;2.20;;
11396;SDS011;5754;43.726;7.416;2023-03-01T07:32:13;3.43;;;2.00;;
11396;SDS011;5754;43.726;7.416;2023-03-01T07:34:47;3.27;;;2.43;;
11396;SDS011;5754;43.726;7.416;2023-03-01T07:37:22;4.03;;;2.30;;
11396;SDS011;5754;43.726;7.416;2023-03-01T07:39:56;11.77;;;2.70;;
11396;SDS011;5754;43.726;7.416;2023-03-01T07:42:31;8.27;;;2.70;;
11396;SDS011;5754;43.726;7.416;2023-03-01T07:45:05;8.10;;;3.03;;
11396;SDS011;5754;43.726;7.416;2023-03-01T07:47:41;8.77;;;3.07;;
11396;SDS011;5754;43.726;7.416;2023-03-01T07:50:15;8.43;;;3.03;;
11396;SDS011;5754;43.726;7.416;2023-03-01T07:52:50;7.47;;;2.60;;
11396;SDS011;5754;43.726;7.416;2023-03-01T07:55:24;5.93;;;2.67;;
11396;SDS011;5754;43.726;7.416;2023-03-01T07:57:58;4.87;;;2.80;;
11396;SDS011;5754;43.726;7.416;2023-03-01T08:00:33;3.57;;;2.20;;
11396;SDS011;5754;43.726;7.416;2023-03-01T08:03:07;4.40;;;2.60;;
11396;SDS011;5754;43.726;7.416;2023-03-01T08:05:41;6.93;;;2.87;;
11396;SDS011;5754;43.726;7.416;2023-03-01T08:08:17;4.53;;;2.80;;
11396;SDS011;5754;43.726;7.416;2023-03-01T08:10:51;5.73;;;2.90;;
11396;SDS011;5754;43.726;7.416;2023-03-01T08:13:26;5.73;;;2.70;;
11396;SDS011;5754;43.726;7.416;2023-03-01T08:16:33;7.13;;;2.67;;
11396;SDS011;5754;43.726;7.416;2023-03-01T08:19:09;6.37;;;2.53;;
11396;SDS011;5754;43.726;7.416;2023-03-01T08:21:44;5.17;;;2.63;;
11396;SDS011;5754;43.726;7.416;2023-03-01T08:24:18;5.20;;;2.27;;
11396;SDS011;5754;43.726;7.416;2023-03-01T08:26:53;4.60;;;2.43;;
11396;SDS011;5754;43.726;7.416;2023-03-01T08:29:27;4.67;;;2.50;;
11396;SDS011;5754;43.726;7.416;2023-03-01T08:32:02;5.63;;;2.80;;
11396;SDS011;5754;43.726;7.416;2023-03-01T08:34:37;4.20;;;2.80;;
11396;SDS011;5754;43.726;7.416;2023-03-01T08:37:13;9.20;;;3.30;;
11396;SDS011;5754;43.726;7.416;2023-03-01T08:39:47;6.27;;;2.23;;
11396;SDS011;5754;43.726;7.416;2023-03-01T08:42:22;6.00;;;3.13;;
11396;SDS011;5754;43.726;7.416;2023-03-01T08:44:57;5.60;;;2.77;;
11396;SDS011;5754;43.726;7.416;2023-03-01T08:47:32;6.83;;;2.80;;
11396;SDS011;5754;43.726;7.416;2023-03-01T08:50:08;6.17;;;3.03;;
11396;SDS011;5754;43.726;7.416;2023-03-01T08:52:43;6.10;;;2.87;;
11396;SDS011;5754;43.726;7.416;2023-03-01T08:55:17;5.77;;;2.93;;
11396;SDS011;5754;43.726;7.416;2023-03-01T08:57:52;4.97;;;2.80;;
11396;SDS011;5754;43.726;7.416;2023-03-01T09:00:26;7.70;;;3.23;;
11396;SDS011;5754;43.726;7.416;2023-03-01T09:03:01;6.87;;;2.93;;
11396;SDS011;5754;43.726;7.416;2023-03-01T09:05:35;3.23;;;2.47;;
11396;SDS011;5754;43.726;7.416;2023-03-01T09:08:10;4.97;;;2.63;;
11396;SDS011;5754;43.726;7.416;2023-03-01T09:10:44;4.53;;;2.40;;
11396;SDS011;5754;43.726;7.416;2023-03-01T09:13:19;7.23;;;2.80;;
11396;SDS011;5754;43.726;7.416;2023-03-01T09:15:53;4.43;;;2.60;;
11396;SDS011;5754;43.726;7.416;2023-03-01T09:18:28;6.77;;;2.80;;
11396;SDS011;5754;43.726;7.416;2023-03-01T09:24:12;5.40;;;2.80;;
11396;SDS011;5754;43.726;7.416;2023-03-01T09:26:47;5.67;;;2.70;;
11396;SDS011;5754;43.726;7.416;2023-03-01T09:29:23;7.87;;;2.80;;
11396;SDS011;5754;43.726;7.416;2023-03-01T09:31:58;8.33;;;2.73;;
11396;SDS011;5754;43.726;7.416;2023-03-01T09:34:34;5.83;;;2.87;;
11396;SDS011;5754;43.726;7.416;2023-03-01T09:37:35;7.27;;;2.80;;
11396;SDS011;5754;43.726;7.416;2023-03-01T09:43:00;6.13;;;2.77;;
11396;SDS011;5754;43.726;7.416;2023-03-01T09:45:38;6.80;;;2.37;;
11396;SDS011;5754;43.726;7.416;2023-03-01T09:48:16;6.67;;;2.77;;
11396;SDS011;5754;43.726;7.416;2023-03-01T09:50:52;6.37;;;2.57;;
11396;SDS011;5754;43.726;7.416;2023-03-01T09:53:31;7.17;;;2.73;;
11396;SDS011;5754;43.726;7.416;2023-03-01T09:56:19;6.40;;;2.73;;
11396;SDS011;5754;43.726;7.416;2023-03-01T10:05:09;9.13;;;2.10;;
11396;SDS011;5754;43.726;7.416;2023-03-01T10:07:54;5.03;;;2.43;;
11396;SDS011;5754;43.726;7.416;2023-03-01T10:10:34;7.97;;;2.67;;
11396;SDS011;5754;43.726;7.416;2023-03-01T10:13:19;4.50;;;2.33;;
11396;SDS011;5754;43.726;7.416;2023-03-01T10:15:57;5.70;;;3.27;;
11396;SDS011;5754;43.726;7.416;2023-03-01T10:18:33;7.60;;;2.97;;
11396;SDS011;5754;43.726;7.416;2023-03-01T10:21:14;6.57;;;2.70;;
11396;SDS011;5754;43.726;7.416;2023-03-01T10:23:50;6.93;;;2.63;;
11396;SDS011;5754;43.726;7.416;2023-03-01T10:26:37;5.27;;;3.23;;
11396;SDS011;5754;43.726;7.416;2023-03-01T10:29:13;7.60;;;3.13;;
11396;SDS011;5754;43.726;7.416;2023-03-01T10:31:51;6.63;;;2.90;;
11396;SDS011;5754;43.726;7.416;2023-03-01T10:34:31;6.90;;;2.73;;
11396;SDS011;5754;43.726;7.416;2023-03-01T10:37:10;6.93;;;3.00;;
11396;SDS011;5754;43.726;7.416;2023-03-01T10:39:56;5.70;;;3.00;;
11396;SDS011;5754;43.726;7.416;2023-03-01T10:42:31;5.27;;;3.33;;
11396;SDS011;5754;43.726;7.416;2023-03-01T10:45:17;8.57;;;2.50;;
11396;SDS011;5754;43.726;7.416;2023-03-01T10:48:03;8.90;;;3.70;;
11396;SDS011;5754;43.726;7.416;2023-03-01T10:50:38;10.23;;;3.17;;
11396;SDS011;5754;43.726;7.416;2023-03-01T10:53:29;7.37;;;3.10;;
11396;SDS011;5754;43.726;7.416;2023-03-01T10:56:09;8.37;;;2.90;;
11396;SDS011;5754;43.726;7.416;2023-03-01T10:58:57;6.63;;;2.40;;
11396;SDS011;5754;43.726;7.416;2023-03-01T11:01:33;3.47;;;2.60;;
11396;SDS011;5754;43.726;7.416;2023-03-01T11:04:11;5.27;;;2.40;;
11396;SDS011;5754;43.726;7.416;2023-03-01T11:06:45;5.40;;;2.60;;
11396;SDS011;5754;43.726;7.416;2023-03-01T11:09:32;4.87;;;2.43;;
11396;SDS011;5754;43.726;7.416;2023-03-01T11:12:14;4.87;;;2.37;;
11396;SDS011;5754;43.726;7.416;2023-03-01T11:14:50;6.87;;;2.80;;
11396;SDS011;5754;43.726;7.416;2023-03-01T11:17:27;4.37;;;2.40;;
11396;SDS011;5754;43.726;7.416;2023-03-01T11:20:23;5.50;;;2.50;;
11396;SDS011;5754;43.726;7.416;2023-03-01T11:23:03;5.20;;;2.30;;
11396;SDS011;5754;43.726;7.416;2023-03-01T11:25:41;4.57;;;2.60;;
11396;SDS011;5754;43.726;7.416;2023-03-01T11:28:17;8.13;;;2.67;;
11396;SDS011;5754;43.726;7.416;2023-03-01T11:31:08;4.73;;;2.73;;
11396;SDS011;5754;43.726;7.416;2023-03-01T11:33:55;6.13;;;2.50;;
11396;SDS011;5754;43.726;7.416;2023-03-01T11:36:51;5.37;;;2.70;;
11396;SDS011;5754;43.726;7.416;2023-03-01T11:39:34;3.93;;;3.17;;
11396;SDS011;5754;43.726;7.416;2023-03-01T11:44:54;4.20;;;2.60;;
11396;SDS011;5754;43.726;7.416;2023-03-01T11:50:42;7.23;;;3.40;;
11396;SDS011;5754;43.726;7.416;2023-03-01T11:53:42;12.63;;;3.87;;
11396;SDS011;5754;43.726;7.416;2023-03-01T11:56:43;9.20;;;3.40;;
11396;SDS011;5754;43.726;7.416;2023-03-01T12:06:43;8.30;;;3.37;;
11396;SDS011;5754;43.726;7.416;2023-03-01T12:13:42;10.80;;;3.60;;
11396;SDS011;5754;43.726;7.416;2023-03-01T12:17:07;10.77;;;4.00;;
11396;SDS011;5754;43.726;7.416;2023-03-01T12:20:50;7.33;;;3.27;;
11396;SDS011;5754;43.726;7.416;2023-03-01T12:23:50;10.60;;;3.33;;
11396;SDS011;5754;43.726;7.416;2023-03-01T12:26:33;5.90;;;3.20;;
11396;SDS011;5754;43.726;7.416;2023-03-01T12:29:46;13.77;;;3.97;;
11396;SDS011;5754;43.726;7.416;2023-03-01T12:36:49;9.70;;;3.83;;
11396;SDS011;5754;43.726;7.416;2023-03-01T12:43:46;6.93;;;3.73;;
11396;SDS011;5754;43.726;7.416;2023-03-01T12:49:31;7.77;;;3.57;;
11396;SDS011;5754;43.726;7.416;2023-03-01T12:52:20;9.27;;;3.83;;
11396;SDS011;5754;43.726;7.416;2023-03-01T12:54:56;9.73;;;4.33;;
11396;SDS011;5754;43.726;7.416;2023-03-01T12:57:37;9.47;;;4.43;;
11396;SDS011;5754;43.726;7.416;2023-03-01T13:00:35;9.97;;;4.70;;
11396;SDS011;5754;43.726;7.416;2023-03-01T13:07:53;9.97;;;4.87;;
11396;SDS011;5754;43.726;7.416;2023-03-01T13:10:34;6.97;;;4.60;;
11396;SDS011;5754;43.726;7.416;2023-03-01T13:13:14;10.17;;;5.23;;
11396;SDS011;5754;43.726;7.416;2023-03-01T13:15:53;9.67;;;5.17;;
11396;SDS011;5754;43.726;7.416;2023-03-01T13:18:29;11.63;;;5.13;;
11396;SDS011;5754;43.726;7.416;2023-03-01T13:21:05;11.07;;;4.20;;
11396;SDS011;5754;43.726;7.416;2023-03-01T13:23:40;9.83;;;4.70;;
11396;SDS011;5754;43.726;7.416;2023-03-01T13:26:21;7.67;;;3.97;;
11396;SDS011;5754;43.726;7.416;2023-03-01T13:28:56;13.70;;;4.50;;
11396;SDS011;5754;43.726;7.416;2023-03-01T13:31:55;12.50;;;5.10;;
11396;SDS011;5754;43.726;7.416;2023-03-01T13:34:45;11.47;;;5.17;;
11396;SDS011;5754;43.726;7.416;2023-03-01T13:37:20;12.40;;;4.77;;
11396;SDS011;5754;43.726;7.416;2023-03-01T13:39:55;14.23;;;5.23;;
11396;SDS011;5754;43.726;7.416;2023-03-01T13:42:33;16.07;;;5.27;;
11396;SDS011;5754;43.726;7.416;2023-03-01T13:45:20;11.47;;;5.07;;
11396;SDS011;5754;43.726;7.416;2023-03-01T13:47:57;16.53;;;4.63;;
11396;SDS011;5754;43.726;7.416;2023-03-01T13:50:34;7.00;;;4.00;;
11396;SDS011;5754;43.726;7.416;2023-03-01T13:53:13;10.90;;;4.90;;
11396;SDS011;5754;43.726;7.416;2023-03-01T13:59:05;13.53;;;4.90;;
11396;SDS011;5754;43.726;7.416;2023-03-01T14:01:53;12.23;;;5.27;;
11396;SDS011;5754;43.726;7.416;2023-03-01T14:04:32;11.20;;;4.70;;
11396;SDS011;5754;43.726;7.416;2023-03-01T14:07:20;9.80;;;4.40;;
11396;SDS011;5754;43.726;7.416;2023-03-01T14:09:55;10.67;;;4.23;;
11396;SDS011;5754;43.726;7.416;2023-03-01T14:18:47;11.27;;;4.40;;
11396;SDS011;5754;43.726;7.416;2023-03-01T14:21:25;13.20;;;4.70;;
11396;SDS011;5754;43.726;7.416;2023-03-01T14:24:00;10.50;;;4.53;;
11396;SDS011;5754;43.726;7.416;2023-03-01T14:26:34;10.33;;;3.70;;
11396;SDS011;5754;43.726;7.416;2023-03-01T14:29:25;14.27;;;4.40;;
11396;SDS011;5754;43.726;7.416;2023-03-01T14:34:53;13.03;;;3.70;;
11396;SDS011;5754;43.726;7.416;2023-03-01T14:37:32;14.93;;;3.40;;
11396;SDS011;5754;43.726;7.416;2023-03-01T14:40:19;11.50;;;3.47;;
11396;SDS011;5754;43.726;7.416;2023-03-01T14:42:54;6.80;;;3.00;;
11396;SDS011;5754;43.726;7.416;2023-03-01T14:45:29;8.93;;;3.03;;
11396;SDS011;5754;43.726;7.416;2023-03-01T14:48:04;9.00;;;3.67;;
11396;SDS011;5754;43.726;7.416;2023-03-01T14:50:41;9.33;;;3.13;;
11396;SDS011;5754;43.726;7.416;2023-03-01T14:53:20;10.40;;;3.80;;
11396;SDS011;5754;43.726;7.416;2023-03-01T14:55:59;8.50;;;3.17;;
11396;SDS011;5754;43.726;7.416;2023-03-01T14:58:37;7.87;;;3.20;;
11396;SDS011;5754;43.726;7.416;2023-03-01T15:01:13;9.03;;;3.20;;
11396;SDS011;5754;43.726;7.416;2023-03-01T15:03:48;7.33;;;2.90;;
11396;SDS011;5754;43.726;7.416;2023-03-01T15:06:23;5.57;;;3.00;;
11396;SDS011;5754;43.726;7.416;2023-03-01T15:08:58;6.60;;;2.80;;
11396;SDS011;5754;43.726;7.416;2023-03-01T15:11:33;9.43;;;3.27;;
11396;SDS011;5754;43.726;7.416;2023-03-01T15:20:17;7.47;;;2.40;;
11396;SDS011;5754;43.726;7.416;2023-03-01T15:22:53;4.57;;;2.60;;
11396;SDS011;5754;43.726;7.416;2023-03-01T15:25:29;3.93;;;2.33;;
11396;SDS011;5754;43.726;7.416;2023-03-01T15:28:05;4.63;;;2.20;;
11396;SDS011;5754;43.726;7.416;2023-03-01T15:30:39;4.63;;;2.03;;
11396;SDS011;5754;43.726;7.416;2023-03-01T15:33:31;6.37;;;2.73;;
11396;SDS011;5754;43.726;7.416;2023-03-01T15:39:00;4.53;;;1.80;;
11396;SDS011;5754;43.726;7.416;2023-03-01T15:41:46;8.47;;;1.90;;
11396;SDS011;5754;43.726;7.416;2023-03-01T15:44:26;5.30;;;1.70;;
11396;SDS011;5754;43.726;7.416;2023-03-01T15:47:25;5.03;;;1.57;;
11396;SDS011;5754;43.726;7.416;2023-03-01T15:49:59;3.00;;;1.80;;
11396;SDS011;5754;43.726;7.416;2023-03-01T15:52:35;6.10;;;1.63;;
11396;SDS011;5754;43.726;7.416;2023-03-01T15:55:20;5.10;;;1.80;;
11396;SDS011;5754;43.726;7.416;2023-03-01T16:01:30;11.87;;;1.77;;
11396;SDS011;5754;43.726;7.416;2023-03-01T16:04:10;6.47;;;2.00;;
11396;SDS011;5754;43.726;7.416;2023-03-01T16:06:54;6.93;;;1.97;;
11396;SDS011;5754;43.726;7.416;2023-03-01T16:09:28;9.20;;;2.00;;
11396;SDS011;5754;43.726;7.416;2023-03-01T16:12:03;6.17;;;3.03;;
11396;SDS011;5754;43.726;7.416;2023-03-01T16:14:38;12.33;;;2.60;;
11396;SDS011;5754;43.726;7.416;2023-03-01T16:17:13;4.07;;;2.00;;
11396;SDS011;5754;43.726;7.416;2023-03-01T16:19:48;12.10;;;2.30;;
11396;SDS011;5754;43.726;7.416;2023-03-01T16:22:22;9.30;;;2.63;;
11396;SDS011;5754;43.726;7.416;2023-03-01T16:24:58;9.30;;;1.80;;
11396;SDS011;5754;43.726;7.416;2023-03-01T16:27:33;8.90;;;1.87;;
11396;SDS011;5754;43.726;7.416;2023-03-01T16:30:08;10.00;;;1.80;;
11396;SDS011;5754;43.726;7.416;2023-03-01T16:32:44;6.40;;;1.53;;
11396;SDS011;5754;43.726;7.416;2023-03-01T16:35:19;12.20;;;1.97;;
11396;SDS011;5754;43.726;7.416;2023-03-01T16:37:54;6.17;;;1.77;;
11396;SDS011;5754;43.726;7.416;2023-03-01T16:40:29;15.30;;;2.10;;
11396;SDS011;5754;43.726;7.416;2023-03-01T16:43:04;7.77;;;1.80;;
11396;SDS011;5754;43.726;7.416;2023-03-01T16:45:41;7.23;;;1.33;;
11396;SDS011;5754;43.726;7.416;2023-03-01T16:48:18;4.33;;;2.00;;
11396;SDS011;5754;43.726;7.416;2023-03-01T16:50:59;4.87;;;1.50;;
11396;SDS011;5754;43.726;7.416;2023-03-01T16:53:34;11.00;;;2.03;;
11396;SDS011;5754;43.726;7.416;2023-03-01T16:56:10;3.63;;;1.50;;
11396;SDS011;5754;43.726;7.416;2023-03-01T16:58:46;8.07;;;1.50;;
11396;SDS011;5754;43.726;7.416;2023-03-01T17:01:20;5.67;;;1.60;;
11396;SDS011;5754;43.726;7.416;2023-03-01T17:03:59;6.00;;;1.80;;
11396;SDS011;5754;43.726;7.416;2023-03-01T17:09:15;7.80;;;2.20;;
11396;SDS011;5754;43.726;7.416;2023-03-01T17:11:50;7.60;;;2.27;;
11396;SDS011;5754;43.726;7.416;2023-03-01T17:14:24;6.00;;;1.60;;
11396;SDS011;5754;43.726;7.416;2023-03-01T17:16:59;6.53;;;1.80;;
11396;SDS011;5754;43.726;7.416;2023-03-01T17:19:36;5.40;;;2.10;;
11396;SDS011;5754;43.726;7.416;2023-03-01T17:22:14;4.67;;;1.97;;
11396;SDS011;5754;43.726;7.416;2023-03-01T17:24:50;3.73;;;1.80;;